sensor_id;sensor_type;location;lat;lon;timestamp;temperature;humidity
12013;DHT22;6065;48.138;16.402;2023-10-09T00:06:45;13.60;99.40
12013;DHT22;6065;48.138;16.402;2023-10-09T00:09:21;13.60;99.40
12013;DHT22;6065;48.138;16.402;2023-10-09T00:12:01;13.60;99.40
12013;DHT22;6065;48.138;16.402;2023-10-09T00:14:35;13.50;99.40
12013;DHT22;6065;48.138;16.402;2023-10-09T00:17:06;13.50;99.50
12013;DHT22;6065;48.138;16.402;2023-10-09T00:19:42;13.50;99.60
12013;DHT22;6065;48.138;16.402;2023-10-09T00:22:14;13.50;99.90
12013;DHT22;6065;48.138;16.402;2023-10-09T00:24:55;13.50;99.70
12013;DHT22;6065;48.138;16.402;2023-10-09T00:27:38;13.50;99.70
12013;DHT22;6065;48.138;16.402;2023-10-09T00:30:16;13.50;99.70
12013;DHT22;6065;48.138;16.402;2023-10-09T00:32:44;13.50;99.70
12013;DHT22;6065;48.138;16.402;2023-10-09T00:35:17;13.50;99.80
12013;DHT22;6065;48.138;16.402;2023-10-09T00:40:59;13.50;99.80
12013;DHT22;6065;48.138;16.402;2023-10-09T00:43:36;13.40;99.90
12013;DHT22;6065;48.138;16.402;2023-10-09T00:46:04;13.40;99.90
12013;DHT22;6065;48.138;16.402;2023-10-09T00:48:35;13.40;99.90
12013;DHT22;6065;48.138;16.402;2023-10-09T00:51:16;13.40;99.90
12013;DHT22;6065;48.138;16.402;2023-10-09T00:53:49;13.40;99.90
12013;DHT22;6065;48.138;16.402;2023-10-09T00:56:24;13.40;99.90
12013;DHT22;6065;48.138;16.402;2023-10-09T00:59:17;13.40;99.90
12013;DHT22;6065;48.138;16.402;2023-10-09T01:01:50;13.40;99.90
12013;DHT22;6065;48.138;16.402;2023-10-09T01:04:32;13.40;99.90
12013;DHT22;6065;48.138;16.402;2023-10-09T01:07:02;13.40;99.90
12013;DHT22;6065;48.138;16.402;2023-10-09T01:09:34;13.40;99.90
12013;DHT22;6065;48.138;16.402;2023-10-09T01:12:04;13.40;99.90
12013;DHT22;6065;48.138;16.402;2023-10-09T01:14:31;13.40;99.90
12013;DHT22;6065;48.138;16.402;2023-10-09T01:17:01;13.40;99.90
12013;DHT22;6065;48.138;16.402;2023-10-09T01:19:29;13.40;99.90
12013;DHT22;6065;48.138;16.402;2023-10-09T01:21:56;13.30;99.90
12013;DHT22;6065;48.138;16.402;2023-10-09T01:24:29;13.30;99.90
12013;DHT22;6065;48.138;16.402;2023-10-09T01:26:57;13.30;99.90
12013;DHT22;6065;48.138;16.402;2023-10-09T01:29:24;13.30;99.90
12013;DHT22;6065;48.138;16.402;2023-10-09T01:32:07;13.30;99.90
12013;DHT22;6065;48.138;16.402;2023-10-09T01:34:42;13.20;99.90
12013;DHT22;6065;48.138;16.402;2023-10-09T01:37:28;13.20;99.90
12013;DHT22;6065;48.138;16.402;2023-10-09T01:40:11;13.20;99.90
12013;DHT22;6065;48.138;16.402;2023-10-09T01:42:52;13.10;99.90
12013;DHT22;6065;48.138;16.402;2023-10-09T01:51:40;12.90;99.90
12013;DHT22;6065;48.138;16.402;2023-10-09T01:54:06;12.90;99.90
12013;DHT22;6065;48.138;16.402;2023-10-09T01:56:34;12.80;99.90
12013;DHT22;6065;48.138;16.402;2023-10-09T01:59:03;12.80;99.90
12013;DHT22;6065;48.138;16.402;2023-10-09T02:01:35;12.70;99.90
12013;DHT22;6065;48.138;16.402;2023-10-09T02:04:06;12.70;99.90
12013;DHT22;6065;48.138;16.402;2023-10-09T02:06:39;12.70;99.90
12013;DHT22;6065;48.138;16.402;2023-10-09T02:09:05;12.70;99.90
12013;DHT22;6065;48.138;16.402;2023-10-09T02:11:34;12.60;99.90
12013;DHT22;6065;48.138;16.402;2023-10-09T02:14:04;12.60;99.90
12013;DHT22;6065;48.138;16.402;2023-10-09T02:16:44;12.50;99.90
12013;DHT22;6065;48.138;16.402;2023-10-09T02:19:28;12.60;99.90
12013;DHT22;6065;48.138;16.402;2023-10-09T02:21:59;12.60;99.90
12013;DHT22;6065;48.138;16.402;2023-10-09T02:24:26;12.60;99.90
12013;DHT22;6065;48.138;16.402;2023-10-09T02:27:10;12.50;99.90
12013;DHT22;6065;48.138;16.402;2023-10-09T02:29:41;12.50;99.90
12013;DHT22;6065;48.138;16.402;2023-10-09T02:32:08;12.50;99.90
12013;DHT22;6065;48.138;16.402;2023-10-09T02:34:50;12.50;99.90
12013;DHT22;6065;48.138;16.402;2023-10-09T02:37:19;12.50;99.90
12013;DHT22;6065;48.138;16.402;2023-10-09T02:39:49;12.50;99.90
12013;DHT22;6065;48.138;16.402;2023-10-09T02:42:19;12.60;99.90
12013;DHT22;6065;48.138;16.402;2023-10-09T02:44:49;12.60;99.90
12013;DHT22;6065;48.138;16.402;2023-10-09T02:47:17;12.60;99.90
12013;DHT22;6065;48.138;16.402;2023-10-09T02:49:46;12.60;99.90
12013;DHT22;6065;48.138;16.402;2023-10-09T02:52:14;12.70;99.90
12013;DHT22;6065;48.138;16.402;2023-10-09T02:54:44;12.70;99.90
12013;DHT22;6065;48.138;16.402;2023-10-09T02:57:13;12.70;99.90
12013;DHT22;6065;48.138;16.402;2023-10-09T03:00:02;12.70;99.90
12013;DHT22;6065;48.138;16.402;2023-10-09T03:02:29;12.70;99.90
12013;DHT22;6065;48.138;16.402;2023-10-09T03:04:57;12.70;99.90
12013;DHT22;6065;48.138;16.402;2023-10-09T03:07:24;12.70;99.90
12013;DHT22;6065;48.138;16.402;2023-10-09T03:09:51;12.70;99.90
12013;DHT22;6065;48.138;16.402;2023-10-09T03:12:18;12.80;99.90
12013;DHT22;6065;48.138;16.402;2023-10-09T03:15:00;12.80;99.90
12013;DHT22;6065;48.138;16.402;2023-10-09T03:17:31;12.80;99.90
12013;DHT22;6065;48.138;16.402;2023-10-09T03:20:02;12.90;99.90
12013;DHT22;6065;48.138;16.402;2023-10-09T03:22:37;12.80;99.90
12013;DHT22;6065;48.138;16.402;2023-10-09T03:25:05;12.80;99.90
12013;DHT22;6065;48.138;16.402;2023-10-09T03:27:37;12.70;99.90
12013;DHT22;6065;48.138;16.402;2023-10-09T03:30:07;12.70;99.90
12013;DHT22;6065;48.138;16.402;2023-10-09T03:32:35;12.80;99.90
12013;DHT22;6065;48.138;16.402;2023-10-09T03:35:02;12.80;99.90
12013;DHT22;6065;48.138;16.402;2023-10-09T03:37:32;12.80;99.90
12013;DHT22;6065;48.138;16.402;2023-10-09T03:40:00;12.80;99.90
12013;DHT22;6065;48.138;16.402;2023-10-09T03:42:27;12.80;99.90
12013;DHT22;6065;48.138;16.402;2023-10-09T03:44:55;12.80;99.90
12013;DHT22;6065;48.138;16.402;2023-10-09T03:47:24;12.90;99.90
12013;DHT22;6065;48.138;16.402;2023-10-09T03:49:53;12.80;99.90
12013;DHT22;6065;48.138;16.402;2023-10-09T03:52:19;12.80;99.90
12013;DHT22;6065;48.138;16.402;2023-10-09T03:54:50;12.70;99.90
12013;DHT22;6065;48.138;16.402;2023-10-09T03:57:19;12.70;99.90
12013;DHT22;6065;48.138;16.402;2023-10-09T03:59:50;12.70;99.90
12013;DHT22;6065;48.138;16.402;2023-10-09T04:02:40;12.70;99.90
12013;DHT22;6065;48.138;16.402;2023-10-09T04:05:07;12.70;99.90
12013;DHT22;6065;48.138;16.402;2023-10-09T04:07:35;12.70;99.90
12013;DHT22;6065;48.138;16.402;2023-10-09T04:10:02;12.70;99.90
12013;DHT22;6065;48.138;16.402;2023-10-09T04:12:49;12.70;99.90
12013;DHT22;6065;48.138;16.402;2023-10-09T04:15:18;12.60;99.90
12013;DHT22;6065;48.138;16.402;2023-10-09T04:17:49;12.60;99.90
12013;DHT22;6065;48.138;16.402;2023-10-09T04:20:17;12.50;99.90
12013;DHT22;6065;48.138;16.402;2023-10-09T04:23:02;12.50;99.90
12013;DHT22;6065;48.138;16.402;2023-10-09T04:25:31;12.50;99.90
12013;DHT22;6065;48.138;16.402;2023-10-09T04:28:07;12.60;99.90
12013;DHT22;6065;48.138;16.402;2023-10-09T04:30:35;12.50;99.90
12013;DHT22;6065;48.138;16.402;2023-10-09T04:33:07;12.50;99.90
12013;DHT22;6065;48.138;16.402;2023-10-09T04:35:48;12.50;99.90
12013;DHT22;6065;48.138;16.402;2023-10-09T04:38:35;12.60;99.90
12013;DHT22;6065;48.138;16.402;2023-10-09T04:41:04;12.50;99.90
12013;DHT22;6065;48.138;16.402;2023-10-09T04:43:34;12.50;99.90
12013;DHT22;6065;48.138;16.402;2023-10-09T04:45:59;12.50;99.90
12013;DHT22;6065;48.138;16.402;2023-10-09T04:48:34;12.50;99.90
12013;DHT22;6065;48.138;16.402;2023-10-09T04:51:04;12.50;99.90
12013;DHT22;6065;48.138;16.402;2023-10-09T04:54:00;12.50;99.90
12013;DHT22;6065;48.138;16.402;2023-10-09T04:56:38;12.60;99.90
12013;DHT22;6065;48.138;16.402;2023-10-09T04:59:17;12.60;99.90
12013;DHT22;6065;48.138;16.402;2023-10-09T05:01:45;12.60;99.90
12013;DHT22;6065;48.138;16.402;2023-10-09T05:04:24;12.60;99.90
12013;DHT22;6065;48.138;16.402;2023-10-09T05:07:05;12.60;99.90
12013;DHT22;6065;48.138;16.402;2023-10-09T05:09:48;12.60;99.90
12013;DHT22;6065;48.138;16.402;2023-10-09T05:12:35;12.60;99.90
12013;DHT22;6065;48.138;16.402;2023-10-09T05:15:11;12.50;99.90
12013;DHT22;6065;48.138;16.402;2023-10-09T05:17:39;12.50;99.90
12013;DHT22;6065;48.138;16.402;2023-10-09T05:20:20;12.60;99.90
12013;DHT22;6065;48.138;16.402;2023-10-09T05:23:04;12.60;99.90
12013;DHT22;6065;48.138;16.402;2023-10-09T05:25:48;12.70;99.90
12013;DHT22;6065;48.138;16.402;2023-10-09T05:28:24;12.70;99.90
12013;DHT22;6065;48.138;16.402;2023-10-09T05:31:14;12.70;99.90
12013;DHT22;6065;48.138;16.402;2023-10-09T05:34:04;12.70;99.90
12013;DHT22;6065;48.138;16.402;2023-10-09T05:36:33;12.70;99.90
12013;DHT22;6065;48.138;16.402;2023-10-09T05:39:01;12.60;99.90
12013;DHT22;6065;48.138;16.402;2023-10-09T05:41:45;12.60;99.90
12013;DHT22;6065;48.138;16.402;2023-10-09T05:44:17;12.70;99.90
12013;DHT22;6065;48.138;16.402;2023-10-09T05:47:02;12.60;99.90
12013;DHT22;6065;48.138;16.402;2023-10-09T05:49:46;12.60;99.90
12013;DHT22;6065;48.138;16.402;2023-10-09T05:52:22;12.60;99.90
12013;DHT22;6065;48.138;16.402;2023-10-09T05:54:58;12.60;99.90
12013;DHT22;6065;48.138;16.402;2023-10-09T05:57:42;12.70;99.90
12013;DHT22;6065;48.138;16.402;2023-10-09T06:00:26;12.60;99.90
12013;DHT22;6065;48.138;16.402;2023-10-09T06:03:10;12.70;99.90
12013;DHT22;6065;48.138;16.402;2023-10-09T06:05:49;12.70;99.80
12013;DHT22;6065;48.138;16.402;2023-10-09T06:08:30;12.70;99.60
12013;DHT22;6065;48.138;16.402;2023-10-09T06:11:11;12.60;99.10
12013;DHT22;6065;48.138;16.402;2023-10-09T06:13:52;12.50;99.20
12013;DHT22;6065;48.138;16.402;2023-10-09T06:16:28;12.40;99.40
12013;DHT22;6065;48.138;16.402;2023-10-09T06:19:06;12.40;99.40
12013;DHT22;6065;48.138;16.402;2023-10-09T06:21:44;12.30;99.60
12013;DHT22;6065;48.138;16.402;2023-10-09T06:24:29;12.30;99.60
12013;DHT22;6065;48.138;16.402;2023-10-09T06:27:06;12.30;99.70
12013;DHT22;6065;48.138;16.402;2023-10-09T06:29:49;12.30;99.70
12013;DHT22;6065;48.138;16.402;2023-10-09T06:32:38;12.30;99.60
12013;DHT22;6065;48.138;16.402;2023-10-09T06:35:14;12.30;99.70
12013;DHT22;6065;48.138;16.402;2023-10-09T06:37:44;12.30;99.50
12013;DHT22;6065;48.138;16.402;2023-10-09T06:40:35;12.30;99.50
12013;DHT22;6065;48.138;16.402;2023-10-09T06:43:20;12.20;99.50
12013;DHT22;6065;48.138;16.402;2023-10-09T06:45:53;12.30;99.80
12013;DHT22;6065;48.138;16.402;2023-10-09T06:48:23;12.40;99.80
12013;DHT22;6065;48.138;16.402;2023-10-09T06:51:04;12.40;99.80
12013;DHT22;6065;48.138;16.402;2023-10-09T06:53:33;12.40;99.90
12013;DHT22;6065;48.138;16.402;2023-10-09T06:56:18;12.40;99.80
12013;DHT22;6065;48.138;16.402;2023-10-09T06:59:09;12.40;99.90
12013;DHT22;6065;48.138;16.402;2023-10-09T07:01:47;12.50;99.90
12013;DHT22;6065;48.138;16.402;2023-10-09T07:04:34;12.60;99.90
12013;DHT22;6065;48.138;16.402;2023-10-09T07:07:21;12.70;99.90
12013;DHT22;6065;48.138;16.402;2023-10-09T07:09:50;12.70;99.90
12013;DHT22;6065;48.138;16.402;2023-10-09T07:12:36;12.70;99.90
12013;DHT22;6065;48.138;16.402;2023-10-09T07:15:09;12.70;99.90
12013;DHT22;6065;48.138;16.402;2023-10-09T07:18:05;12.80;99.90
12013;DHT22;6065;48.138;16.402;2023-10-09T07:20:45;12.90;99.80
12013;DHT22;6065;48.138;16.402;2023-10-09T07:23:24;12.90;99.80
12013;DHT22;6065;48.138;16.402;2023-10-09T07:26:00;12.90;99.80
12013;DHT22;6065;48.138;16.402;2023-10-09T07:28:50;13.00;99.80
12013;DHT22;6065;48.138;16.402;2023-10-09T07:31:29;13.10;99.80
12013;DHT22;6065;48.138;16.402;2023-10-09T07:34:04;13.00;99.60
12013;DHT22;6065;48.138;16.402;2023-10-09T07:36:53;13.00;99.70
12013;DHT22;6065;48.138;16.402;2023-10-09T07:39:22;13.00;99.90
12013;DHT22;6065;48.138;16.402;2023-10-09T07:41:54;13.00;99.90
12013;DHT22;6065;48.138;16.402;2023-10-09T07:44:42;13.10;99.90
12013;DHT22;6065;48.138;16.402;2023-10-09T07:47:22;13.20;99.90
12013;DHT22;6065;48.138;16.402;2023-10-09T07:50:09;13.30;99.80
12013;DHT22;6065;48.138;16.402;2023-10-09T07:52:46;13.30;99.60
12013;DHT22;6065;48.138;16.402;2023-10-09T07:55:20;13.30;99.60
12013;DHT22;6065;48.138;16.402;2023-10-09T07:57:55;13.30;99.70
12013;DHT22;6065;48.138;16.402;2023-10-09T08:00:23;13.40;99.80
12013;DHT22;6065;48.138;16.402;2023-10-09T08:03:02;13.40;99.90
12013;DHT22;6065;48.138;16.402;2023-10-09T08:05:49;13.50;99.90
12013;DHT22;6065;48.138;16.402;2023-10-09T08:08:18;13.50;99.80
12013;DHT22;6065;48.138;16.402;2023-10-09T08:11:07;13.50;99.70
12013;DHT22;6065;48.138;16.402;2023-10-09T08:14:00;13.50;99.50
12013;DHT22;6065;48.138;16.402;2023-10-09T08:16:29;13.50;99.70
12013;DHT22;6065;48.138;16.402;2023-10-09T08:19:06;13.60;99.80
12013;DHT22;6065;48.138;16.402;2023-10-09T08:21:57;13.70;99.80
12013;DHT22;6065;48.138;16.402;2023-10-09T08:24:42;13.80;99.70
12013;DHT22;6065;48.138;16.402;2023-10-09T08:27:18;13.80;99.80
12013;DHT22;6065;48.138;16.402;2023-10-09T08:30:02;13.90;99.60
12013;DHT22;6065;48.138;16.402;2023-10-09T08:32:55;13.90;99.50
12013;DHT22;6065;48.138;16.402;2023-10-09T08:35:28;14.00;99.60
12013;DHT22;6065;48.138;16.402;2023-10-09T08:37:55;14.10;99.50
12013;DHT22;6065;48.138;16.402;2023-10-09T08:43:01;14.10;99.40
12013;DHT22;6065;48.138;16.402;2023-10-09T08:45:35;14.20;99.60
12013;DHT22;6065;48.138;16.402;2023-10-09T08:48:09;14.20;99.50
12013;DHT22;6065;48.138;16.402;2023-10-09T08:50:42;14.30;99.60
12013;DHT22;6065;48.138;16.402;2023-10-09T08:53:10;14.40;99.50
12013;DHT22;6065;48.138;16.402;2023-10-09T08:55:37;14.60;99.40
12013;DHT22;6065;48.138;16.402;2023-10-09T08:58:13;14.70;99.20
12013;DHT22;6065;48.138;16.402;2023-10-09T09:00:43;14.70;99.00
12013;DHT22;6065;48.138;16.402;2023-10-09T09:03:13;14.80;99.40
12013;DHT22;6065;48.138;16.402;2023-10-09T09:05:41;14.80;99.30
12013;DHT22;6065;48.138;16.402;2023-10-09T09:08:20;14.90;99.30
12013;DHT22;6065;48.138;16.402;2023-10-09T09:10:57;15.00;98.90
12013;DHT22;6065;48.138;16.402;2023-10-09T09:13:31;15.10;99.10
12013;DHT22;6065;48.138;16.402;2023-10-09T09:15:59;15.10;99.10
12013;DHT22;6065;48.138;16.402;2023-10-09T09:18:36;15.20;99.20
12013;DHT22;6065;48.138;16.402;2023-10-09T09:21:26;15.30;99.00
12013;DHT22;6065;48.138;16.402;2023-10-09T09:23:57;15.30;98.70
12013;DHT22;6065;48.138;16.402;2023-10-09T09:26:33;15.30;98.70
12013;DHT22;6065;48.138;16.402;2023-10-09T09:29:02;15.30;98.90
12013;DHT22;6065;48.138;16.402;2023-10-09T09:31:31;15.40;99.10
12013;DHT22;6065;48.138;16.402;2023-10-09T09:34:05;15.40;99.00
12013;DHT22;6065;48.138;16.402;2023-10-09T09:36:52;15.50;99.00
12013;DHT22;6065;48.138;16.402;2023-10-09T09:39:29;15.50;99.10
12013;DHT22;6065;48.138;16.402;2023-10-09T09:41:56;15.50;99.00
12013;DHT22;6065;48.138;16.402;2023-10-09T09:44:32;15.60;99.30
12013;DHT22;6065;48.138;16.402;2023-10-09T09:47:08;15.60;99.30
12013;DHT22;6065;48.138;16.402;2023-10-09T09:49:47;15.70;99.30
12013;DHT22;6065;48.138;16.402;2023-10-09T09:52:14;15.80;99.20
12013;DHT22;6065;48.138;16.402;2023-10-09T09:54:43;15.80;99.20
12013;DHT22;6065;48.138;16.402;2023-10-09T09:57:11;15.90;99.00
12013;DHT22;6065;48.138;16.402;2023-10-09T09:59:51;16.00;98.90
12013;DHT22;6065;48.138;16.402;2023-10-09T10:02:23;16.10;98.90
12013;DHT22;6065;48.138;16.402;2023-10-09T10:04:53;16.20;99.10
12013;DHT22;6065;48.138;16.402;2023-10-09T10:07:22;16.30;98.90
12013;DHT22;6065;48.138;16.402;2023-10-09T10:09:50;16.40;98.70
12013;DHT22;6065;48.138;16.402;2023-10-09T10:15:07;16.50;98.60
12013;DHT22;6065;48.138;16.402;2023-10-09T10:17:54;16.50;98.50
12013;DHT22;6065;48.138;16.402;2023-10-09T10:23:27;16.70;98.50
12013;DHT22;6065;48.138;16.402;2023-10-09T10:26:02;16.70;98.50
12013;DHT22;6065;48.138;16.402;2023-10-09T10:28:42;16.70;98.40
12013;DHT22;6065;48.138;16.402;2023-10-09T10:31:11;16.80;98.50
12013;DHT22;6065;48.138;16.402;2023-10-09T10:36:26;16.90;98.50
12013;DHT22;6065;48.138;16.402;2023-10-09T10:39:00;17.00;98.60
12013;DHT22;6065;48.138;16.402;2023-10-09T10:41:35;17.10;98.50
12013;DHT22;6065;48.138;16.402;2023-10-09T10:44:14;17.20;98.40
12013;DHT22;6065;48.138;16.402;2023-10-09T10:47:02;17.30;98.40
12013;DHT22;6065;48.138;16.402;2023-10-09T10:49:51;17.40;98.40
12013;DHT22;6065;48.138;16.402;2023-10-09T10:52:23;17.50;98.60
12013;DHT22;6065;48.138;16.402;2023-10-09T10:55:12;17.60;98.50
12013;DHT22;6065;48.138;16.402;2023-10-09T10:58:14;17.60;98.30
12013;DHT22;6065;48.138;16.402;2023-10-09T11:00:54;17.70;98.40
12013;DHT22;6065;48.138;16.402;2023-10-09T11:03:40;17.70;97.90
12013;DHT22;6065;48.138;16.402;2023-10-09T11:06:42;17.80;97.90
12013;DHT22;6065;48.138;16.402;2023-10-09T11:09:09;17.80;97.80
12013;DHT22;6065;48.138;16.402;2023-10-09T11:11:47;17.80;97.90
12013;DHT22;6065;48.138;16.402;2023-10-09T11:14:14;17.70;98.00
12013;DHT22;6065;48.138;16.402;2023-10-09T11:16:43;17.70;98.60
12013;DHT22;6065;48.138;16.402;2023-10-09T11:19:13;17.60;98.90
12013;DHT22;6065;48.138;16.402;2023-10-09T11:21:56;17.60;99.70
12013;DHT22;6065;48.138;16.402;2023-10-09T11:24:46;17.50;99.90
12013;DHT22;6065;48.138;16.402;2023-10-09T11:27:25;17.50;99.90
12013;DHT22;6065;48.138;16.402;2023-10-09T11:29:57;17.40;99.90
12013;DHT22;6065;48.138;16.402;2023-10-09T11:32:30;17.40;99.90
12013;DHT22;6065;48.138;16.402;2023-10-09T11:37:34;17.30;99.90
12013;DHT22;6065;48.138;16.402;2023-10-09T11:40:17;17.30;99.90
12013;DHT22;6065;48.138;16.402;2023-10-09T11:42:59;17.30;99.90
12013;DHT22;6065;48.138;16.402;2023-10-09T11:45:28;17.30;99.90
12013;DHT22;6065;48.138;16.402;2023-10-09T11:48:15;17.30;99.90
12013;DHT22;6065;48.138;16.402;2023-10-09T11:50:46;17.20;99.90
12013;DHT22;6065;48.138;16.402;2023-10-09T11:53:21;17.20;99.90
12013;DHT22;6065;48.138;16.402;2023-10-09T11:56:00;17.20;99.90
12013;DHT22;6065;48.138;16.402;2023-10-09T11:58:26;17.20;99.90
12013;DHT22;6065;48.138;16.402;2023-10-09T12:00:53;17.20;99.90
12013;DHT22;6065;48.138;16.402;2023-10-09T12:13:44;17.10;99.90
12013;DHT22;6065;48.138;16.402;2023-10-09T12:16:11;17.10;99.90
12013;DHT22;6065;48.138;16.402;2023-10-09T12:18:46;17.10;99.90
12013;DHT22;6065;48.138;16.402;2023-10-09T12:21:18;17.10;99.90
12013;DHT22;6065;48.138;16.402;2023-10-09T12:23:46;17.10;99.90
12013;DHT22;6065;48.138;16.402;2023-10-09T12:26:13;17.20;99.90
12013;DHT22;6065;48.138;16.402;2023-10-09T12:28:40;17.20;99.90
12013;DHT22;6065;48.138;16.402;2023-10-09T12:31:12;17.20;99.90
12013;DHT22;6065;48.138;16.402;2023-10-09T12:33:40;17.30;99.90
12013;DHT22;6065;48.138;16.402;2023-10-09T12:36:12;17.30;99.90
12013;DHT22;6065;48.138;16.402;2023-10-09T12:38:45;17.30;99.90
12013;DHT22;6065;48.138;16.402;2023-10-09T12:41:20;17.20;99.90
12013;DHT22;6065;48.138;16.402;2023-10-09T12:43:50;17.30;99.90
12013;DHT22;6065;48.138;16.402;2023-10-09T12:46:21;17.30;99.90
12013;DHT22;6065;48.138;16.402;2023-10-09T12:48:50;17.20;99.90
12013;DHT22;6065;48.138;16.402;2023-10-09T12:51:22;17.20;99.90
12013;DHT22;6065;48.138;16.402;2023-10-09T12:53:58;17.20;99.90
12013;DHT22;6065;48.138;16.402;2023-10-09T12:56:27;17.20;99.90
12013;DHT22;6065;48.138;16.402;2023-10-09T12:59:04;17.10;99.90
12013;DHT22;6065;48.138;16.402;2023-10-09T13:01:33;17.10;99.90
12013;DHT22;6065;48.138;16.402;2023-10-09T13:04:07;17.10;99.90
12013;DHT22;6065;48.138;16.402;2023-10-09T13:06:37;17.00;99.90
12013;DHT22;6065;48.138;16.402;2023-10-09T13:09:09;17.00;99.90
12013;DHT22;6065;48.138;16.402;2023-10-09T13:11:36;17.00;99.90
12013;DHT22;6065;48.138;16.402;2023-10-09T13:14:07;17.00;99.90
12013;DHT22;6065;48.138;16.402;2023-10-09T13:16:49;16.90;99.90
12013;DHT22;6065;48.138;16.402;2023-10-09T13:19:17;16.90;99.90
12013;DHT22;6065;48.138;16.402;2023-10-09T13:21:44;16.90;99.90
12013;DHT22;6065;48.138;16.402;2023-10-09T13:24:15;16.80;99.90
12013;DHT22;6065;48.138;16.402;2023-10-09T13:26:43;16.80;99.90
12013;DHT22;6065;48.138;16.402;2023-10-09T13:29:13;16.80;99.90
12013;DHT22;6065;48.138;16.402;2023-10-09T13:31:56;16.80;99.90
12013;DHT22;6065;48.138;16.402;2023-10-09T13:34:28;16.80;99.90
12013;DHT22;6065;48.138;16.402;2023-10-09T13:37:00;16.70;99.90
12013;DHT22;6065;48.138;16.402;2023-10-09T13:39:36;16.70;99.90
12013;DHT22;6065;48.138;16.402;2023-10-09T13:42:06;16.80;99.90
12013;DHT22;6065;48.138;16.402;2023-10-09T13:44:34;16.70;99.90
12013;DHT22;6065;48.138;16.402;2023-10-09T13:47:04;16.70;99.90
12013;DHT22;6065;48.138;16.402;2023-10-09T13:49:31;16.70;99.90
12013;DHT22;6065;48.138;16.402;2023-10-09T13:51:58;16.60;99.90
12013;DHT22;6065;48.138;16.402;2023-10-09T13:54:25;16.60;99.90
12013;DHT22;6065;48.138;16.402;2023-10-09T13:57:05;16.60;99.90
12013;DHT22;6065;48.138;16.402;2023-10-09T13:59:33;16.60;99.90
12013;DHT22;6065;48.138;16.402;2023-10-09T14:02:01;16.60;99.90
12013;DHT22;6065;48.138;16.402;2023-10-09T14:04:35;16.50;99.90
12013;DHT22;6065;48.138;16.402;2023-10-09T14:07:02;16.50;99.90
12013;DHT22;6065;48.138;16.402;2023-10-09T14:09:31;16.50;99.90
12013;DHT22;6065;48.138;16.402;2023-10-09T14:12:03;16.50;99.90
12013;DHT22;6065;48.138;16.402;2023-10-09T14:14:35;16.50;99.90
12013;DHT22;6065;48.138;16.402;2023-10-09T14:17:04;16.50;99.90
12013;DHT22;6065;48.138;16.402;2023-10-09T14:19:38;16.50;99.90
12013;DHT22;6065;48.138;16.402;2023-10-09T14:22:06;16.50;99.90
12013;DHT22;6065;48.138;16.402;2023-10-09T14:24:33;16.50;99.90
12013;DHT22;6065;48.138;16.402;2023-10-09T14:27:00;16.40;99.90
12013;DHT22;6065;48.138;16.402;2023-10-09T14:29:29;16.40;99.90
12013;DHT22;6065;48.138;16.402;2023-10-09T14:31:57;16.40;99.90
12013;DHT22;6065;48.138;16.402;2023-10-09T14:34:26;16.40;99.90
12013;DHT22;6065;48.138;16.402;2023-10-09T14:36:59;16.40;99.90
12013;DHT22;6065;48.138;16.402;2023-10-09T14:39:26;16.30;99.90
12013;DHT22;6065;48.138;16.402;2023-10-09T14:41:54;16.30;99.90
12013;DHT22;6065;48.138;16.402;2023-10-09T14:44:23;16.40;99.90
12013;DHT22;6065;48.138;16.402;2023-10-09T14:46:50;16.30;99.90
12013;DHT22;6065;48.138;16.402;2023-10-09T14:49:16;16.30;99.90
12013;DHT22;6065;48.138;16.402;2023-10-09T14:51:47;16.30;99.90
12013;DHT22;6065;48.138;16.402;2023-10-09T14:54:15;16.30;99.90
12013;DHT22;6065;48.138;16.402;2023-10-09T14:56:43;16.30;99.90
12013;DHT22;6065;48.138;16.402;2023-10-09T14:59:11;16.30;99.90
12013;DHT22;6065;48.138;16.402;2023-10-09T15:01:37;16.30;99.90
12013;DHT22;6065;48.138;16.402;2023-10-09T15:04:04;16.20;99.90
12013;DHT22;6065;48.138;16.402;2023-10-09T15:06:32;16.20;99.90
12013;DHT22;6065;48.138;16.402;2023-10-09T15:09:00;16.20;99.90
12013;DHT22;6065;48.138;16.402;2023-10-09T15:11:35;16.20;99.90
12013;DHT22;6065;48.138;16.402;2023-10-09T15:14:04;16.20;99.90
12013;DHT22;6065;48.138;16.402;2023-10-09T15:16:31;16.20;99.90
12013;DHT22;6065;48.138;16.402;2023-10-09T15:18:58;16.20;99.90
12013;DHT22;6065;48.138;16.402;2023-10-09T15:21:28;16.20;99.90
12013;DHT22;6065;48.138;16.402;2023-10-09T15:23:57;16.20;99.90
12013;DHT22;6065;48.138;16.402;2023-10-09T15:26:24;16.20;99.90
12013;DHT22;6065;48.138;16.402;2023-10-09T15:29:00;16.10;99.90
12013;DHT22;6065;48.138;16.402;2023-10-09T15:31:29;16.10;99.90
12013;DHT22;6065;48.138;16.402;2023-10-09T15:33:57;16.20;99.90
12013;DHT22;6065;48.138;16.402;2023-10-09T15:36:24;16.10;99.90
12013;DHT22;6065;48.138;16.402;2023-10-09T15:38:54;16.10;99.90
12013;DHT22;6065;48.138;16.402;2023-10-09T15:41:25;16.10;99.90
12013;DHT22;6065;48.138;16.402;2023-10-09T15:43:55;16.10;99.90
12013;DHT22;6065;48.138;16.402;2023-10-09T15:46:24;16.10;99.90
12013;DHT22;6065;48.138;16.402;2023-10-09T15:48:51;16.20;99.90
12013;DHT22;6065;48.138;16.402;2023-10-09T15:51:19;16.20;99.90
12013;DHT22;6065;48.138;16.402;2023-10-09T15:53:46;16.20;99.90
12013;DHT22;6065;48.138;16.402;2023-10-09T15:56:13;16.10;99.90
12013;DHT22;6065;48.138;16.402;2023-10-09T15:58:41;16.20;99.90
12013;DHT22;6065;48.138;16.402;2023-10-09T16:01:10;16.20;99.90
12013;DHT22;6065;48.138;16.402;2023-10-09T16:03:40;16.20;99.90
12013;DHT22;6065;48.138;16.402;2023-10-09T16:06:07;16.10;99.90
12013;DHT22;6065;48.138;16.402;2023-10-09T16:08:38;16.20;99.90
12013;DHT22;6065;48.138;16.402;2023-10-09T16:11:05;16.20;99.90
12013;DHT22;6065;48.138;16.402;2023-10-09T16:13:32;16.10;99.90
12013;DHT22;6065;48.138;16.402;2023-10-09T16:15:59;16.10;99.90
12013;DHT22;6065;48.138;16.402;2023-10-09T16:18:27;16.10;99.90
12013;DHT22;6065;48.138;16.402;2023-10-09T16:20:55;16.10;99.90
12013;DHT22;6065;48.138;16.402;2023-10-09T16:23:22;16.10;99.90
12013;DHT22;6065;48.138;16.402;2023-10-09T16:25:49;16.10;99.90
12013;DHT22;6065;48.138;16.402;2023-10-09T16:28:18;16.10;99.90
12013;DHT22;6065;48.138;16.402;2023-10-09T16:30:44;16.00;99.90
12013;DHT22;6065;48.138;16.402;2023-10-09T16:33:13;16.00;99.90
12013;DHT22;6065;48.138;16.402;2023-10-09T16:35:41;16.00;99.90
12013;DHT22;6065;48.138;16.402;2023-10-09T16:38:11;16.00;99.90
12013;DHT22;6065;48.138;16.402;2023-10-09T16:40:38;16.00;99.90
12013;DHT22;6065;48.138;16.402;2023-10-09T16:43:05;16.00;99.90
12013;DHT22;6065;48.138;16.402;2023-10-09T16:45:39;16.00;99.90
12013;DHT22;6065;48.138;16.402;2023-10-09T16:48:09;16.00;99.90
12013;DHT22;6065;48.138;16.402;2023-10-09T16:50:35;16.00;99.90